Impacts METAR Board
IDs:

KMGM - Montgomery/Dannely F, AL, US

Updated at: 2000 UTC 15 Aug 2018
Potential Impact None Slight Moderate High
Time 15/08Z 15/09Z 15/10Z 15/11Z 15/12Z 15/13Z 15/14Z 15/15Z 15/16Z 15/17Z 15/18Z 15/19Z 15/20Z
Temp72 71 71 70 71 73 79 83 87 88 91 91 93
Dewpt71 70 71 69 71 73 75 74 75 74 75 74 73
Altim30.03 30.03 30.05 30.05 30.07 30.08 30.08 30.09 30.09 30.08 30.08 30.06 30.04
VIS10 8 0.5 0.25 0.25 2.5 10 10 10 10 10 10 10
CIG-- -- 2 2 2 2 -- -- -- -- -- -- --
CoverCLRCLROVXOVXOVXOVCSCTCLRCLRCLRCLRSCTFEW
FltCatVFRVFRLIFRLIFRLIFRLIFRVFRVFRVFRVFRVFRVFRVFR
WX----FGFGFGBR--------------
WDir0000000005000160
WSpd0 0 0 0 0 0 0 0 4 3 6 3 4
WGst-- -- -- -- -- -- -- -- -- -- -- -- --
Raw hourly METARs
KMGM 150753Z AUTO 00000KT 10SM CLR 22/22 A3003 RMK AO2 SLP167 T02220217
KMGM 150853Z AUTO 00000KT 8SM CLR 22/21 A3003 RMK AO2 SLP167 T02170211 58001
KMGM 151001Z AUTO 00000KT 1/2SM FG VV002 22/22 A3005 RMK AO2 T02170217
KMGM 151053Z 00000KT 1/4SM FG VV002 21/21 A3005 RMK AO2 SLP173 T02110206
KMGM 151153Z 00000KT M1/4SM FG VV002 22/22 A3007 RMK AO2 SLP179 70010 T02170217 10228 20206 53008
KMGM 151253Z 00000KT 2 1/2SM BR OVC002 23/23 A3008 RMK AO2 SLP182 T02280228
KMGM 151403Z 00000KT 10SM SCT004 26/24 A3008 RMK AO2 T02610239
KMGM 151453Z 00000KT 10SM CLR 28/23 A3009 RMK AO2 SLP186 T02830233 53004
KMGM 151553Z VRB04KT 10SM CLR 31/24 A3009 RMK AO2 SLP187 T03060239
KMGM 151653Z 05003KT 10SM CLR 31/23 A3008 RMK AO2 SLP184 T03110233
KMGM 151753Z VRB06KT 10SM CLR 33/24 A3008 RMK AO2 SLP182 T03280239 10328 20217 58004
KMGM 151853Z VRB03KT 10SM FEW037 SCT049 33/23 A3006 RMK AO2 SLP176 T03280233
KMGM 151953Z 16004KT 10SM FEW050 34/23 A3004 RMK AO2 SLP169 T03390228



Page loaded:  20:43 UTC  |   01:43 PM Pacific  |   02:43 PM Mountain  |   03:43 PM Central  |   04:43 PM Eastern

 

ADVISORIES

FORECASTS

FORECASTS

OBSERVATIONS

USER TOOLS

ABOUT US